createdAt,value
2018-03-24T00:00:40.077Z,996.31
2018-03-24T00:01:40.008Z,996.32
2018-03-24T00:03:33.326Z,996.33
2018-03-24T00:04:33.237Z,996.33
2018-03-24T00:06:26.500Z,996.25
2018-03-24T00:07:26.430Z,996.28
2018-03-24T00:09:19.700Z,996.26
2018-03-24T00:10:19.610Z,996.26
2018-03-24T00:12:12.888Z,996.22
2018-03-24T00:13:12.800Z,996.19
2018-03-24T00:15:06.187Z,996.22
2018-03-24T00:16:05.988Z,996.16
2018-03-24T00:17:59.330Z,996.17
2018-03-24T00:18:59.240Z,996.16
2018-03-24T00:20:52.499Z,996.17
2018-03-24T00:21:52.429Z,996.16
2018-03-24T00:23:45.708Z,996.19
2018-03-24T00:24:45.620Z,996.19
2018-03-24T00:26:38.873Z,996.17
2018-03-24T00:27:38.803Z,996.16
2018-03-24T00:29:32.080Z,996.13
2018-03-24T00:30:31.993Z,996.12
2018-03-24T00:32:25.315Z,996.16
2018-03-24T00:33:25.240Z,996.15
2018-03-24T00:35:18.628Z,996.15
2018-03-24T00:36:18.430Z,996.17
2018-03-24T00:38:11.689Z,996.15
2018-03-24T00:39:11.619Z,996.15
2018-03-24T00:41:05.006Z,996.17
2018-03-24T00:42:04.807Z,996.11
2018-03-24T00:43:58.066Z,996.07
2018-03-24T00:44:57.995Z,996.07
2018-03-24T00:46:51.332Z,996.09
2018-03-24T00:47:51.245Z,996.08
2018-03-24T00:49:44.498Z,996.15
2018-03-24T00:50:44.427Z,996.15
2018-03-24T00:52:37.708Z,996.17
2018-03-24T00:53:37.615Z,996.20
2018-03-24T00:55:31.003Z,996.18
2018-03-24T00:56:30.803Z,996.13
2018-03-24T00:58:24.064Z,996.12
2018-03-24T00:59:23.996Z,996.17
2018-03-24T01:01:17.328Z,996.13
2018-03-24T01:02:17.240Z,996.13
2018-03-24T01:04:10.496Z,996.08
2018-03-24T01:05:10.425Z,996.11
2018-03-24T01:07:03.695Z,996.11
2018-03-24T01:08:03.607Z,996.09
2018-03-24T01:09:56.859Z,996.10
2018-03-24T01:10:56.792Z,996.14
2018-03-24T01:12:50.067Z,996.11
2018-03-24T01:13:49.975Z,996.12
2018-03-24T01:15:43.344Z,996.09
2018-03-24T01:16:43.238Z,996.09
2018-03-24T01:18:36.514Z,996.09
2018-03-24T01:19:36.424Z,996.10
2018-03-24T01:21:29.699Z,996.03
2018-03-24T01:22:29.610Z,996.02
2018-03-24T01:24:22.986Z,996.09
2018-03-24T01:25:22.808Z,996.05
2018-03-24T01:27:16.083Z,996.00
2018-03-24T01:28:15.993Z,996.03
2018-03-24T01:30:09.309Z,996.05
2018-03-24T01:31:09.238Z,996.03
2018-03-24T01:33:02.513Z,996.03
2018-03-24T01:34:02.423Z,996.03
2018-03-24T01:35:55.679Z,996.00
2018-03-24T01:36:55.611Z,995.98
2018-03-24T01:38:48.994Z,995.97
2018-03-24T01:39:48.794Z,995.96
2018-03-24T01:41:42.051Z,995.92
2018-03-24T01:42:41.978Z,995.94
2018-03-24T01:44:35.332Z,995.96
2018-03-24T01:45:35.240Z,995.96
2018-03-24T01:47:28.535Z,995.91
2018-03-24T01:48:28.425Z,995.97
2018-03-24T01:50:21.681Z,995.97
2018-03-24T01:51:21.610Z,995.97
2018-03-24T01:53:14.996Z,995.95
2018-03-24T01:54:14.795Z,995.99
2018-03-24T01:56:08.165Z,995.96
2018-03-24T01:57:07.980Z,996.03
2018-03-24T01:59:01.328Z,996.03
2018-03-24T02:00:01.237Z,996.01
2018-03-24T02:01:54.606Z,996.02
2018-03-24T02:02:54.424Z,996.00
2018-03-24T02:04:47.699Z,995.97
2018-03-24T02:05:47.609Z,995.99
2018-03-24T02:07:40.865Z,995.98
2018-03-24T02:08:40.793Z,995.99
2018-03-24T02:10:34.068Z,995.95
2018-03-24T02:11:33.977Z,995.96
2018-03-24T02:13:27.345Z,995.98
2018-03-24T02:14:27.236Z,995.96
2018-03-24T02:16:21.625Z,995.94
2018-03-24T02:17:21.419Z,995.97
2018-03-24T02:19:14.726Z,995.94
2018-03-24T02:20:14.601Z,995.94
2018-03-24T02:22:07.972Z,995.87
2018-03-24T02:23:07.788Z,995.91
2018-03-24T02:25:01.063Z,995.94
2018-03-24T02:26:00.971Z,995.91
2018-03-24T02:27:54.227Z,995.91
2018-03-24T02:28:54.154Z,995.89
2018-03-24T02:30:47.430Z,995.88
2018-03-24T02:31:47.341Z,995.90
2018-03-24T02:33:40.593Z,995.90
2018-03-24T02:34:40.522Z,995.91
2018-03-24T02:36:33.787Z,995.94
2018-03-24T02:37:33.696Z,995.89
2018-03-24T02:39:26.956Z,995.93
2018-03-24T02:40:26.878Z,995.94
2018-03-24T02:42:20.158Z,995.90
2018-03-24T02:43:20.067Z,995.90
2018-03-24T02:45:13.336Z,995.85
2018-03-24T02:46:13.245Z,995.86
2018-03-24T02:48:06.503Z,995.82
2018-03-24T02:49:06.471Z,995.84
2018-03-24T02:50:59.700Z,995.87
2018-03-24T02:51:59.608Z,995.84
2018-03-24T02:53:52.867Z,995.88
2018-03-24T02:54:52.792Z,995.82
2018-03-24T02:56:46.058Z,995.84
2018-03-24T02:57:45.965Z,995.91
2018-03-24T02:59:39.229Z,995.87
2018-03-24T03:00:39.149Z,995.85
2018-03-24T03:02:32.422Z,995.78
2018-03-24T03:03:32.330Z,995.80
2018-03-24T03:05:25.586Z,995.80
2018-03-24T03:06:25.520Z,995.80
2018-03-24T03:08:18.897Z,995.80
2018-03-24T03:09:18.697Z,995.77
2018-03-24T03:11:11.952Z,995.79
2018-03-24T03:12:11.878Z,995.80
2018-03-24T03:14:05.152Z,995.80
2018-03-24T03:15:05.059Z,995.78
2018-03-24T03:16:58.321Z,995.74
2018-03-24T03:17:58.231Z,995.76
2018-03-24T03:19:51.484Z,995.72
2018-03-24T03:20:51.417Z,995.70
2018-03-24T03:22:44.683Z,995.70
2018-03-24T03:23:44.600Z,995.73
2018-03-24T03:25:37.847Z,995.74
2018-03-24T03:26:37.774Z,995.75
2018-03-24T03:28:31.046Z,995.79
2018-03-24T03:29:30.958Z,995.80
2018-03-24T03:31:24.322Z,995.80
2018-03-24T03:32:24.138Z,995.84
2018-03-24T03:34:17.409Z,995.84
2018-03-24T03:35:17.319Z,995.79
2018-03-24T03:37:10.584Z,995.80
2018-03-24T03:38:10.490Z,995.85
2018-03-24T03:40:03.859Z,995.82
2018-03-24T03:41:03.672Z,995.86
2018-03-24T03:42:56.944Z,995.86
2018-03-24T03:43:56.851Z,995.88
2018-03-24T03:45:51.109Z,995.89
2018-03-24T03:46:51.036Z,995.90
2018-03-24T03:48:44.307Z,995.91
2018-03-24T03:49:44.219Z,995.89
2018-03-24T03:51:37.470Z,995.90
2018-03-24T03:52:37.396Z,995.89
2018-03-24T03:54:30.671Z,995.92
2018-03-24T03:55:30.578Z,995.91
2018-03-24T03:57:23.829Z,995.90
2018-03-24T03:58:23.752Z,995.92
2018-03-24T04:00:17.138Z,995.90
2018-03-24T04:01:16.937Z,995.93
2018-03-24T04:03:10.227Z,995.90
2018-03-24T04:04:10.117Z,995.89
2018-03-24T04:06:03.371Z,995.87
2018-03-24T04:07:03.300Z,995.88
2018-03-24T04:08:56.571Z,995.85
2018-03-24T04:09:56.478Z,995.84
2018-03-24T04:11:49.732Z,995.86
2018-03-24T04:12:49.659Z,995.90
2018-03-24T04:14:43.048Z,995.85
2018-03-24T04:15:42.864Z,995.87
2018-03-24T04:17:36.206Z,995.86
2018-03-24T04:18:36.021Z,995.92
2018-03-24T04:20:29.408Z,995.87
2018-03-24T04:21:29.237Z,995.93
2018-03-24T04:23:22.601Z,995.96
2018-03-24T04:24:22.419Z,995.93
2018-03-24T04:26:15.805Z,995.97
2018-03-24T04:27:15.600Z,995.89
2018-03-24T04:29:08.971Z,995.94
2018-03-24T04:30:08.782Z,995.96
2018-03-24T04:32:02.054Z,995.84
2018-03-24T04:33:01.963Z,995.92
2018-03-24T04:34:55.239Z,995.91
2018-03-24T04:35:55.144Z,995.96
2018-03-24T04:37:48.398Z,995.95
2018-03-24T04:38:48.325Z,995.96
2018-03-24T04:40:41.596Z,995.94
2018-03-24T04:41:41.506Z,996.02
2018-03-24T04:43:34.875Z,996.00
2018-03-24T04:44:34.688Z,996.03
2018-03-24T04:46:28.071Z,996.02
2018-03-24T04:47:27.868Z,995.99
2018-03-24T04:49:21.235Z,996.01
2018-03-24T04:50:21.049Z,996.02
2018-03-24T04:52:14.322Z,996.01
2018-03-24T04:53:14.234Z,996.03
2018-03-24T04:55:07.597Z,996.02
2018-03-24T04:56:07.410Z,995.97
2018-03-24T04:58:00.683Z,996.04
2018-03-24T04:59:00.592Z,996.00
2018-03-24T05:00:53.976Z,996.03
2018-03-24T05:01:53.775Z,996.01
2018-03-24T05:03:47.027Z,996.02
2018-03-24T05:04:46.953Z,996.00
2018-03-24T05:06:40.337Z,996.01
2018-03-24T05:07:40.126Z,996.02
2018-03-24T05:09:33.382Z,996.00
2018-03-24T05:10:33.310Z,995.99
2018-03-24T05:12:26.582Z,996.02
2018-03-24T05:13:26.489Z,995.97
2018-03-24T05:15:19.744Z,995.98
2018-03-24T05:16:19.669Z,996.06
2018-03-24T05:18:12.944Z,996.01
2018-03-24T05:19:12.850Z,996.02
2018-03-24T05:21:06.104Z,996.06
2018-03-24T05:22:06.032Z,996.02
2018-03-24T05:23:59.304Z,996.05
2018-03-24T05:24:59.216Z,996.05
2018-03-24T05:26:52.579Z,996.07
2018-03-24T05:27:52.386Z,996.13
2018-03-24T05:29:45.656Z,996.15
2018-03-24T05:30:45.567Z,996.13
2018-03-24T05:32:38.824Z,996.22
2018-03-24T05:33:38.750Z,996.19
2018-03-24T05:35:32.025Z,996.24
2018-03-24T05:36:31.931Z,996.22
2018-03-24T05:38:25.317Z,996.20
2018-03-24T05:39:25.112Z,996.27
2018-03-24T05:41:18.404Z,996.23
2018-03-24T05:42:18.331Z,996.21
2018-03-24T05:44:11.709Z,996.24
2018-03-24T05:45:11.513Z,996.24
2018-03-24T05:47:04.761Z,996.28
2018-03-24T05:48:04.687Z,996.24
2018-03-24T05:49:57.963Z,996.26
2018-03-24T05:50:57.870Z,996.25
2018-03-24T05:52:51.124Z,996.25
2018-03-24T05:53:51.054Z,996.26
2018-03-24T05:55:44.428Z,996.27
2018-03-24T05:56:44.336Z,996.31
2018-03-24T05:58:37.591Z,996.33
2018-03-24T05:59:37.518Z,996.31
2018-03-24T06:01:30.798Z,996.40
2018-03-24T06:02:30.700Z,996.41
2018-03-24T06:04:24.959Z,996.43
2018-03-24T06:05:24.882Z,996.43
2018-03-24T06:07:18.269Z,996.45
2018-03-24T06:08:18.057Z,996.47
2018-03-24T06:10:11.401Z,996.41
2018-03-24T06:11:11.239Z,996.44
2018-03-24T06:13:04.496Z,996.42
2018-03-24T06:14:04.425Z,996.46
2018-03-24T06:15:57.698Z,996.45
2018-03-24T06:16:57.606Z,996.50
2018-03-24T06:18:50.859Z,996.47
2018-03-24T06:19:50.789Z,996.50
2018-03-24T06:21:45.062Z,996.53
2018-03-24T06:22:44.968Z,996.49
2018-03-24T06:24:38.223Z,996.56
2018-03-24T06:25:38.151Z,996.55
2018-03-24T06:27:31.537Z,996.60
2018-03-24T06:28:31.334Z,996.55
2018-03-24T06:30:24.588Z,996.60
2018-03-24T06:31:24.516Z,996.62
2018-03-24T06:33:17.789Z,996.66
2018-03-24T06:34:17.702Z,996.66
2018-03-24T06:36:10.954Z,996.68
2018-03-24T06:37:10.882Z,996.68
2018-03-24T06:39:04.154Z,996.67
2018-03-24T06:40:04.062Z,996.67
2018-03-24T06:41:57.430Z,996.66
2018-03-24T06:42:57.246Z,996.69
2018-03-24T06:44:50.623Z,996.68
2018-03-24T06:45:50.427Z,996.67
2018-03-24T06:47:43.813Z,996.69
2018-03-24T06:48:43.609Z,996.67
2018-03-24T06:50:36.865Z,996.68
2018-03-24T06:51:36.794Z,996.67
2018-03-24T06:53:30.180Z,996.64
2018-03-24T06:54:29.974Z,996.62
2018-03-24T06:56:23.231Z,996.63
2018-03-24T06:57:23.159Z,996.67
2018-03-24T06:59:16.434Z,996.68
2018-03-24T07:00:16.382Z,996.64
2018-03-24T07:02:09.599Z,996.67
2018-03-24T07:03:09.524Z,996.66
2018-03-24T07:05:02.799Z,996.72
2018-03-24T07:06:02.712Z,996.69
2018-03-24T07:07:55.967Z,996.72
2018-03-24T07:08:55.894Z,996.71
2018-03-24T07:10:49.169Z,996.73
2018-03-24T07:11:49.076Z,996.72
2018-03-24T07:13:42.332Z,996.71
2018-03-24T07:14:42.260Z,996.72
2018-03-24T07:16:35.645Z,996.70
2018-03-24T07:17:35.435Z,996.78
2018-03-24T07:19:28.719Z,996.77
2018-03-24T07:20:28.615Z,996.76
2018-03-24T07:22:21.984Z,996.81
2018-03-24T07:23:21.803Z,996.81
2018-03-24T07:25:15.071Z,996.82
2018-03-24T07:26:14.984Z,996.78
2018-03-24T07:28:08.345Z,996.79
2018-03-24T07:29:08.237Z,996.81
2018-03-24T07:31:01.624Z,996.73
2018-03-24T07:32:01.419Z,996.75
2018-03-24T07:33:54.679Z,996.80
2018-03-24T07:34:54.604Z,996.79
2018-03-24T07:36:47.873Z,996.86
2018-03-24T07:37:47.837Z,996.87
2018-03-24T07:39:41.147Z,996.88
2018-03-24T07:40:40.963Z,996.82
2018-03-24T07:42:34.236Z,996.92
2018-03-24T07:43:34.146Z,996.88
2018-03-24T07:45:27.404Z,996.99
2018-03-24T07:46:27.332Z,996.93
2018-03-24T07:48:20.608Z,996.96
2018-03-24T07:49:20.519Z,996.95
2018-03-24T07:51:13.791Z,996.96
2018-03-24T07:52:13.702Z,996.94
2018-03-24T07:54:06.966Z,996.93
2018-03-24T07:55:06.876Z,996.94
2018-03-24T07:57:00.146Z,996.93
2018-03-24T07:58:00.056Z,996.90
2018-03-24T07:59:53.423Z,996.93
2018-03-24T08:00:53.230Z,996.94
2018-03-24T08:02:46.502Z,996.97
2018-03-24T08:03:46.408Z,997.01
2018-03-24T08:05:39.654Z,997.04
2018-03-24T08:06:39.583Z,997.04
2018-03-24T08:08:32.854Z,997.01
2018-03-24T08:09:32.759Z,996.96
2018-03-24T08:11:26.010Z,997.05
2018-03-24T08:12:25.937Z,996.99
2018-03-24T08:14:19.213Z,997.03
2018-03-24T08:15:19.116Z,996.98
2018-03-24T08:17:12.387Z,996.99
2018-03-24T08:18:12.298Z,996.98
2018-03-24T08:20:05.555Z,997.00
2018-03-24T08:21:05.485Z,996.99
2018-03-24T08:22:58.756Z,997.06
2018-03-24T08:23:58.663Z,997.09
2018-03-24T08:25:52.036Z,997.08
2018-03-24T08:26:51.846Z,997.07
2018-03-24T08:28:45.117Z,997.04
2018-03-24T08:29:45.028Z,997.09
2018-03-24T08:31:38.399Z,997.15
2018-03-24T08:32:38.237Z,997.14
2018-03-24T08:34:31.513Z,997.16
2018-03-24T08:35:31.431Z,997.17
2018-03-24T08:37:24.682Z,997.19
2018-03-24T08:38:24.616Z,997.18
2018-03-24T08:40:17.894Z,997.13
2018-03-24T08:41:17.808Z,997.18
2018-03-24T08:43:11.198Z,997.16
2018-03-24T08:44:10.993Z,997.20
2018-03-24T08:46:04.539Z,997.11
2018-03-24T08:47:04.480Z,997.13
2018-03-24T08:48:57.517Z,997.19
2018-03-24T08:49:57.432Z,997.13
2018-03-24T08:51:50.687Z,997.19
2018-03-24T08:52:50.620Z,997.18
2018-03-24T08:54:43.898Z,997.19
2018-03-24T08:55:43.816Z,997.18
2018-03-24T08:57:37.070Z,997.14
2018-03-24T08:58:37.002Z,997.17
2018-03-24T09:00:30.395Z,997.11
2018-03-24T09:01:30.251Z,997.13
2018-03-24T09:03:23.540Z,997.16
2018-03-24T09:04:23.437Z,997.15
2018-03-24T09:06:16.713Z,997.24
2018-03-24T09:07:16.630Z,997.18
2018-03-24T09:09:09.904Z,997.18
2018-03-24T09:10:09.821Z,997.17
2018-03-24T09:12:03.081Z,997.16
2018-03-24T09:13:03.015Z,997.11
2018-03-24T09:14:56.411Z,997.08
2018-03-24T09:15:56.247Z,997.14
2018-03-24T09:17:49.506Z,997.11
2018-03-24T09:18:49.441Z,997.16
2018-03-24T09:20:42.720Z,997.20
2018-03-24T09:21:42.636Z,997.22
2018-03-24T09:23:35.905Z,997.18
2018-03-24T09:24:35.842Z,997.13
2018-03-24T09:26:29.237Z,997.15
2018-03-24T09:27:29.035Z,997.14
2018-03-24T09:29:22.433Z,997.17
2018-03-24T09:30:22.255Z,997.14
2018-03-24T09:32:15.510Z,997.17
2018-03-24T09:33:15.446Z,997.18
2018-03-24T09:35:08.843Z,997.24
2018-03-24T09:36:08.657Z,997.23
2018-03-24T09:38:01.918Z,997.22
2018-03-24T09:39:01.852Z,997.17
2018-03-24T09:40:55.145Z,997.13
2018-03-24T09:41:55.052Z,997.14
2018-03-24T09:43:48.333Z,997.11
2018-03-24T09:44:48.251Z,997.12
2018-03-24T09:46:41.534Z,997.21
2018-03-24T09:47:41.451Z,997.21
2018-03-24T09:49:35.348Z,997.22
2018-03-24T09:50:34.661Z,997.24
2018-03-24T09:52:27.934Z,997.19
2018-03-24T09:53:27.871Z,997.20
2018-03-24T09:55:21.269Z,997.16
2018-03-24T09:56:21.082Z,997.14
2018-03-24T09:58:14.462Z,997.12
2018-03-24T09:59:14.295Z,997.15
2018-03-24T10:01:07.586Z,997.10
2018-03-24T10:02:07.504Z,997.14
2018-03-24T10:04:00.789Z,997.13
2018-03-24T10:05:00.727Z,997.08
2018-03-24T10:06:54.009Z,997.09
2018-03-24T10:07:53.928Z,997.07
2018-03-24T10:09:47.222Z,997.05
2018-03-24T10:10:47.141Z,997.04
2018-03-24T10:12:40.421Z,997.08
2018-03-24T10:13:40.355Z,997.11
2018-03-24T10:15:33.756Z,997.06
2018-03-24T10:16:33.569Z,997.07
2018-03-24T10:18:26.846Z,997.08
2018-03-24T10:19:26.784Z,997.03
2018-03-24T10:21:20.184Z,997.08
2018-03-24T10:22:20.019Z,997.13
2018-03-24T10:24:13.400Z,997.02
2018-03-24T10:25:13.235Z,996.97
2018-03-24T10:27:06.522Z,996.99
2018-03-24T10:28:06.443Z,996.95
2018-03-24T10:29:59.738Z,996.94
2018-03-24T10:30:59.661Z,996.97
2018-03-24T10:32:53.042Z,996.87
2018-03-24T10:33:52.875Z,996.85
2018-03-24T10:35:46.276Z,996.89
2018-03-24T10:36:46.092Z,996.85
2018-03-24T10:38:39.369Z,996.97
2018-03-24T10:39:39.308Z,996.97
2018-03-24T10:41:32.614Z,996.97
2018-03-24T10:42:32.534Z,996.96
2018-03-24T10:44:25.810Z,996.80
2018-03-24T10:45:25.745Z,996.92
2018-03-24T10:47:19.031Z,996.91
2018-03-24T10:48:18.951Z,996.97
2018-03-24T10:50:12.244Z,996.94
2018-03-24T10:51:12.163Z,996.92
2018-03-24T10:53:05.437Z,996.83
2018-03-24T10:54:05.376Z,996.82
2018-03-24T10:55:58.667Z,996.86
2018-03-24T10:56:58.587Z,996.82
2018-03-24T10:58:51.967Z,996.91
2018-03-24T10:59:51.798Z,996.93
2018-03-24T11:01:45.090Z,996.91
2018-03-24T11:02:45.007Z,996.85
2018-03-24T11:04:38.313Z,996.81
2018-03-24T11:05:38.244Z,996.78
2018-03-24T11:07:31.535Z,996.70
2018-03-24T11:08:31.452Z,996.71
2018-03-24T11:10:24.758Z,996.76
2018-03-24T11:11:24.676Z,996.74
2018-03-24T11:13:17.959Z,996.82
2018-03-24T11:14:17.894Z,996.76
2018-03-24T11:16:11.289Z,996.75
2018-03-24T11:17:11.101Z,996.82
2018-03-24T11:19:04.374Z,996.81
2018-03-24T11:20:04.321Z,996.75
2018-03-24T11:21:57.708Z,996.84
2018-03-24T11:22:57.518Z,996.79
2018-03-24T11:24:50.790Z,996.75
2018-03-24T11:25:50.728Z,996.82
2018-03-24T11:27:44.017Z,996.82
2018-03-24T11:28:43.934Z,996.76
2018-03-24T11:30:37.223Z,996.74
2018-03-24T11:31:37.147Z,996.76
2018-03-24T11:33:30.400Z,996.73
2018-03-24T11:34:30.333Z,996.79
2018-03-24T11:36:23.615Z,996.85
2018-03-24T11:37:23.536Z,996.81
2018-03-24T11:39:16.800Z,996.77
2018-03-24T11:40:16.734Z,996.79
2018-03-24T11:42:10.019Z,996.69
2018-03-24T11:43:09.931Z,996.62
2018-03-24T11:45:03.214Z,996.62
2018-03-24T11:46:03.127Z,996.65
2018-03-24T11:47:56.412Z,996.61
2018-03-24T11:48:56.328Z,996.65
2018-03-24T11:50:49.118Z,996.62
2018-03-24T11:51:49.036Z,996.62
2018-03-24T11:53:42.312Z,996.59
2018-03-24T11:54:42.247Z,996.59
2018-03-24T11:56:35.526Z,996.57
2018-03-24T11:57:35.444Z,996.60
2018-03-24T11:59:28.713Z,996.60
2018-03-24T12:00:28.647Z,996.61
2018-03-24T12:02:22.929Z,996.63
2018-03-24T12:03:22.844Z,996.63
2018-03-24T12:05:16.119Z,996.63
2018-03-24T12:06:16.050Z,996.59
2018-03-24T12:08:09.341Z,996.60
2018-03-24T12:09:09.259Z,996.59
2018-03-24T12:11:02.654Z,996.59
2018-03-24T12:12:02.464Z,996.61
2018-03-24T12:13:55.756Z,996.56
2018-03-24T12:14:55.666Z,996.61
2018-03-24T12:16:48.951Z,996.59
2018-03-24T12:17:48.868Z,996.61
2018-03-24T12:19:42.138Z,996.62
2018-03-24T12:20:42.072Z,996.58
2018-03-24T12:22:35.466Z,996.61
2018-03-24T12:23:35.285Z,996.61
2018-03-24T12:25:29.661Z,996.60
2018-03-24T12:26:29.478Z,996.62
2018-03-24T12:28:22.872Z,996.65
2018-03-24T12:29:22.683Z,996.62
2018-03-24T12:31:15.966Z,996.65
2018-03-24T12:32:15.884Z,996.63
2018-03-24T12:34:09.142Z,996.67
2018-03-24T12:35:09.076Z,996.67
2018-03-24T12:37:02.356Z,996.66
2018-03-24T12:38:02.272Z,996.67
2018-03-24T12:39:55.533Z,996.62
2018-03-24T12:40:55.462Z,996.67
2018-03-24T12:42:48.864Z,996.61
2018-03-24T12:43:48.656Z,996.60
2018-03-24T12:45:41.919Z,996.60
2018-03-24T12:46:41.855Z,996.56
2018-03-24T12:48:35.132Z,996.62
2018-03-24T12:49:35.048Z,996.62
2018-03-24T12:51:28.329Z,996.58
2018-03-24T12:52:28.250Z,996.58
2018-03-24T12:54:21.510Z,996.55
2018-03-24T12:55:21.439Z,996.59
2018-03-24T12:57:14.718Z,996.59
2018-03-24T12:58:14.636Z,996.59
2018-03-24T13:00:07.896Z,996.59
2018-03-24T13:01:07.830Z,996.52
2018-03-24T13:03:01.110Z,996.60
2018-03-24T13:04:01.031Z,996.56
2018-03-24T13:05:54.315Z,996.54
2018-03-24T13:06:54.247Z,996.54
2018-03-24T13:08:47.523Z,996.51
2018-03-24T13:09:47.466Z,996.53
2018-03-24T13:11:40.719Z,996.52
2018-03-24T13:12:40.679Z,996.52
2018-03-24T13:14:33.895Z,996.50
2018-03-24T13:15:33.829Z,996.51
2018-03-24T13:17:27.225Z,996.47
2018-03-24T13:18:27.031Z,996.48
2018-03-24T13:20:20.405Z,996.51
2018-03-24T13:21:20.247Z,996.54
2018-03-24T13:23:13.524Z,996.54
2018-03-24T13:24:13.442Z,996.49
2018-03-24T13:26:06.699Z,996.52
2018-03-24T13:27:06.638Z,996.50
2018-03-24T13:28:59.915Z,996.52
2018-03-24T13:29:59.829Z,996.49
2018-03-24T13:31:53.108Z,996.51
2018-03-24T13:32:53.036Z,996.55
2018-03-24T13:34:46.403Z,996.52
2018-03-24T13:35:46.251Z,996.56
2018-03-24T13:37:39.528Z,996.58
2018-03-24T13:38:39.444Z,996.57
2018-03-24T13:40:32.825Z,996.58
2018-03-24T13:41:32.644Z,996.60
2018-03-24T13:43:25.920Z,996.58
2018-03-24T13:44:25.841Z,996.57
2018-03-24T13:46:19.217Z,996.58
2018-03-24T13:47:19.034Z,996.62
2018-03-24T13:49:12.332Z,996.57
2018-03-24T13:50:12.249Z,996.57
2018-03-24T13:52:05.549Z,996.58
2018-03-24T13:53:05.460Z,996.59
2018-03-24T13:54:58.836Z,996.57
2018-03-24T13:55:58.662Z,996.59
2018-03-24T13:57:51.952Z,996.65
2018-03-24T13:58:51.867Z,996.66
2018-03-24T14:00:45.138Z,996.57
2018-03-24T14:01:45.074Z,996.53
2018-03-24T14:03:38.471Z,996.56
2018-03-24T14:04:38.279Z,996.55
2018-03-24T14:06:31.543Z,996.56
2018-03-24T14:07:31.466Z,996.50
2018-03-24T14:09:24.767Z,996.48
2018-03-24T14:10:24.679Z,996.50
2018-03-24T14:12:17.972Z,996.48
2018-03-24T14:13:17.881Z,996.46
2018-03-24T14:15:11.262Z,996.46
2018-03-24T14:16:11.082Z,996.47
2018-03-24T14:18:04.472Z,996.40
2018-03-24T14:19:04.282Z,996.48
2018-03-24T14:20:57.551Z,996.43
2018-03-24T14:21:57.485Z,996.41
2018-03-24T14:23:50.793Z,996.39
2018-03-24T14:24:50.690Z,996.41
2018-03-24T14:26:43.951Z,996.40
2018-03-24T14:27:43.897Z,996.44
2018-03-24T14:29:37.173Z,996.46
2018-03-24T14:30:37.089Z,996.47
2018-03-24T14:32:31.486Z,996.45
2018-03-24T14:33:31.295Z,996.41
2018-03-24T14:35:24.564Z,996.43
2018-03-24T14:36:24.499Z,996.40
2018-03-24T14:38:17.785Z,996.39
2018-03-24T14:39:17.703Z,996.46
2018-03-24T14:41:10.973Z,996.42
2018-03-24T14:42:10.909Z,996.38
2018-03-24T14:44:04.197Z,996.44
2018-03-24T14:45:04.113Z,996.40
2018-03-24T14:46:57.377Z,996.36
2018-03-24T14:47:57.313Z,996.43
2018-03-24T14:49:50.606Z,996.42
2018-03-24T14:50:50.521Z,996.36
2018-03-24T14:52:43.811Z,996.35
2018-03-24T14:53:43.725Z,996.32
2018-03-24T14:55:37.019Z,996.29
2018-03-24T14:56:36.934Z,996.32
2018-03-24T14:58:30.202Z,996.37
2018-03-24T14:59:30.137Z,996.33
2018-03-24T15:01:23.437Z,996.37
2018-03-24T15:02:23.349Z,996.42
2018-03-24T15:04:16.619Z,996.40
2018-03-24T15:05:16.553Z,996.38
2018-03-24T15:07:09.947Z,996.37
2018-03-24T15:08:09.746Z,996.35
2018-03-24T15:10:03.124Z,996.38
2018-03-24T15:11:02.950Z,996.37
2018-03-24T15:12:56.347Z,996.37
2018-03-24T15:13:56.152Z,996.40
2018-03-24T15:15:49.441Z,996.40
2018-03-24T15:16:49.356Z,996.40
2018-03-24T15:18:42.732Z,996.40
2018-03-24T15:19:42.559Z,996.42
2018-03-24T15:21:35.855Z,996.42
2018-03-24T15:22:35.767Z,996.46
2018-03-24T15:24:29.143Z,996.45
2018-03-24T15:25:28.969Z,996.50
2018-03-24T15:27:22.246Z,996.44
2018-03-24T15:28:22.163Z,996.44
2018-03-24T15:30:15.449Z,996.45
2018-03-24T15:31:15.366Z,996.43
2018-03-24T15:33:08.652Z,996.42
2018-03-24T15:34:08.569Z,996.47
2018-03-24T15:36:01.944Z,996.43
2018-03-24T15:37:01.772Z,996.49
2018-03-24T15:38:55.063Z,996.47
2018-03-24T15:39:54.972Z,996.47
2018-03-24T15:41:48.323Z,996.46
2018-03-24T15:42:48.244Z,996.48
2018-03-24T15:44:41.536Z,996.49
2018-03-24T15:45:41.490Z,996.50
2018-03-24T15:47:34.722Z,996.46
2018-03-24T15:48:34.655Z,996.45
2018-03-24T15:50:27.941Z,996.44
2018-03-24T15:51:27.858Z,996.45
2018-03-24T15:53:21.143Z,996.48
2018-03-24T15:54:21.060Z,996.49
2018-03-24T15:56:14.331Z,996.55
2018-03-24T15:57:14.264Z,996.57
2018-03-24T15:59:07.549Z,996.60
2018-03-24T16:00:07.467Z,996.54
2018-03-24T16:02:00.873Z,996.55
2018-03-24T16:03:00.669Z,996.52
2018-03-24T16:04:54.804Z,996.60
2018-03-24T16:05:54.719Z,996.57
2018-03-24T16:07:47.988Z,996.62
2018-03-24T16:08:47.922Z,996.66
2018-03-24T16:10:41.209Z,996.67
2018-03-24T16:11:41.132Z,996.68
2018-03-24T16:13:34.412Z,996.70
2018-03-24T16:14:34.328Z,996.67
2018-03-24T16:16:27.705Z,996.63
2018-03-24T16:17:27.534Z,996.70
2018-03-24T16:19:20.821Z,996.73
2018-03-24T16:20:20.733Z,996.69
2018-03-24T16:22:14.161Z,996.73
2018-03-24T16:23:13.937Z,996.75
2018-03-24T16:25:07.331Z,996.80
2018-03-24T16:26:07.131Z,996.74
2018-03-24T16:28:00.386Z,996.75
2018-03-24T16:29:00.323Z,996.76
2018-03-24T16:30:53.610Z,996.74
2018-03-24T16:31:53.512Z,996.71
2018-03-24T16:33:46.808Z,996.76
2018-03-24T16:34:46.724Z,996.79
2018-03-24T16:36:39.982Z,996.79
2018-03-24T16:37:39.916Z,996.81
2018-03-24T16:39:33.190Z,996.80
2018-03-24T16:40:33.106Z,996.83
2018-03-24T16:42:26.370Z,996.78
2018-03-24T16:43:26.300Z,996.79
2018-03-24T16:45:19.579Z,996.85
2018-03-24T16:46:19.491Z,996.79
2018-03-24T16:48:12.870Z,996.83
2018-03-24T16:49:12.685Z,996.87
2018-03-24T16:51:05.975Z,996.85
2018-03-24T16:52:05.891Z,996.81
2018-03-24T16:53:59.176Z,996.85
2018-03-24T16:54:59.094Z,996.84
2018-03-24T16:56:52.353Z,996.87
2018-03-24T16:57:52.287Z,996.88
2018-03-24T16:59:45.681Z,996.89
2018-03-24T17:00:45.488Z,996.91
2018-03-24T17:02:38.864Z,996.90
2018-03-24T17:03:38.690Z,996.89
2018-03-24T17:05:31.975Z,996.87
2018-03-24T17:06:31.891Z,996.84
2018-03-24T17:08:25.265Z,996.87
2018-03-24T17:09:25.110Z,996.87
2018-03-24T17:11:18.488Z,996.88
2018-03-24T17:12:18.292Z,996.88
2018-03-24T17:14:11.582Z,996.90
2018-03-24T17:15:11.495Z,996.87
2018-03-24T17:17:04.872Z,996.95
2018-03-24T17:18:04.693Z,996.91
2018-03-24T17:19:58.095Z,996.92
2018-03-24T17:20:57.890Z,996.92
2018-03-24T17:22:51.157Z,996.95
2018-03-24T17:23:51.090Z,996.96
2018-03-24T17:25:44.377Z,996.94
2018-03-24T17:26:44.292Z,996.97
2018-03-24T17:28:37.668Z,997.01
2018-03-24T17:29:37.494Z,997.01
2018-03-24T17:31:30.781Z,997.02
2018-03-24T17:32:30.694Z,997.02
2018-03-24T17:34:23.982Z,997.04
2018-03-24T17:35:23.896Z,997.06
2018-03-24T17:37:17.271Z,997.08
2018-03-24T17:38:17.087Z,997.08
2018-03-24T17:40:10.372Z,997.11
2018-03-24T17:41:10.293Z,997.16
2018-03-24T17:43:03.556Z,997.12
2018-03-24T17:44:03.491Z,997.15
2018-03-24T17:45:56.776Z,997.15
2018-03-24T17:46:56.691Z,997.15
2018-03-24T17:48:50.015Z,997.11
2018-03-24T17:49:49.890Z,997.16
2018-03-24T17:51:43.179Z,997.12
2018-03-24T17:52:43.093Z,997.15
2018-03-24T17:54:36.379Z,997.17
2018-03-24T17:55:36.293Z,997.13
2018-03-24T17:57:29.552Z,997.23
2018-03-24T17:58:29.484Z,997.22
2018-03-24T18:00:22.877Z,997.25